Time;durP1;ratioP1;P1;durP2;ratioP2;P2;SDS_P1;SDS_P2;PMS_P1;PMS_P2;Temp;Humidity;BMP_temperature;BMP_pressure;BME280_temperature;BME280_humidity;BME280_pressure;Samples;Min_cycle;Max_cycle;Signal;HPM_P1;HPM_P2
2022/09/19 00:00:43;;;;;;;;;2.00;0.67;;;;;23.17;47.33;100752.91;146645;564;45010;-70
2022/09/19 00:03:38;;;;;;;;;4.00;2.00;;;;;23.12;47.74;100753.81;146638;566;45918;-71
2022/09/19 00:06:35;;;;;;;;;1.67;1.67;;;;;23.02;47.66;100756.44;146646;566;46010;-70
2022/09/19 00:09:40;;;;;;;;;1.67;1.00;;;;;22.14;46.89;100623.22;146642;608;45016;-71
2022/09/19 00:12:34;;;;;;;;;1.00;1.00;;;;;22.86;48.12;100756.38;146643;577;45020;-72
2022/09/19 00:15:28;;;;;;;;;3.67;2.67;;;;;22.86;47.80;100759.03;146640;590;45016;-71
2022/09/19 00:18:26;;;;;;;;;0.00;0.00;;;;;22.87;47.83;100753.75;146645;580;45020;-71
2022/09/19 00:21:30;;;;;;;;;3.00;1.00;;;;;22.86;47.37;100754.59;146642;615;46913;-72
2022/09/19 00:27:29;;;;;;;;;3.67;1.33;;;;;22.85;48.63;100754.63;146711;564;46012;-71
2022/09/19 00:30:24;;;;;;;;;1.00;1.00;;;;;22.86;48.35;100765.19;146626;608;46012;-70
2022/09/19 00:33:21;;;;;;;;;2.00;1.00;;;;;22.81;48.62;100764.31;146628;611;46010;-71
2022/09/19 00:36:27;;;;;;;;;1.00;1.00;;;;;22.72;48.70;100772.22;146623;575;46016;-72
2022/09/19 00:39:39;;;;;;;;;2.75;1.00;;;;;22.65;47.66;100767.78;146627;564;46020;-72
2022/09/19 00:42:39;;;;;;;;;2.00;2.00;;;;;21.62;48.84;100601.94;146712;569;45036;-69
2022/09/19 00:45:36;;;;;;;;;1.00;1.00;;;;;22.62;48.78;100779.25;146627;578;46016;-69
2022/09/19 00:48:39;;;;;;;;;0.00;0.00;;;;;22.59;49.18;100766.91;146632;602;46020;-69
2022/09/19 00:51:39;;;;;;;;;2.00;0.00;;;;;22.53;49.04;100764.25;146625;569;46016;-68
2022/09/19 00:54:53;;;;;;;;;0.33;0.00;;;;;22.47;47.91;100768.63;146630;676;46020;-69
2022/09/19 00:58:15;;;;;;;;;1.00;0.00;;;;;22.44;48.98;100763.34;146625;591;46918;-72
2022/09/19 01:01:15;;;;;;;;;3.00;1.00;;;;;22.45;48.86;100765.09;146629;706;45020;-72
2022/09/19 01:04:24;;;;;;;;;1.00;0.50;;;;;22.48;48.04;100773.03;146625;571;46014;-72
2022/09/19 01:07:51;;;;;;;;;;;;;;;;;;;;;
2022/09/19 01:11:26;;;;;;;;;0.75;0.00;;;;;22.39;47.76;100767.72;146626;574;46013;-72
2022/09/19 01:14:58;;;;;;;;;1.67;1.00;;;;;22.34;48.83;100765.06;146632;634;46020;-70
2022/09/19 01:18:01;;;;;;;;;0.25;0.00;;;;;22.31;48.98;100767.69;146625;571;46018;-73
2022/09/19 01:25:10;;;;;;;;;1.00;0.33;;;;;21.56;47.62;100624.78;146628;694;46017;-71
2022/09/19 01:28:28;;;;;;;;;0.33;0.33;;;;;22.39;48.28;100770.34;146631;579;46019;-73
2022/09/19 01:31:36;;;;;;;;;3.00;0.00;;;;;22.32;49.26;100770.34;146624;615;47016;-74
2022/09/19 01:34:52;;;;;;;;;2.00;1.00;;;;;21.45;48.00;100630.88;146630;578;46020;-73
2022/09/19 01:38:03;;;;;;;;;0.75;0.75;;;;;22.15;49.23;100758.81;146628;571;45029;-73
2022/09/19 01:40:59;;;;;;;;;2.00;1.75;;;;;22.08;49.88;100768.41;146627;572;46020;-71
2022/09/19 01:44:13;;;;;;;;;5.25;2.00;;;;;21.01;48.86;100603.34;146619;694;47012;-71
2022/09/19 01:47:19;;;;;;;;;1.25;1.25;;;;;21.96;51.36;100772.75;146706;564;46012;-76
2022/09/19 01:50:35;;;;;;;;;0.50;0.50;;;;;21.94;49.69;100771.91;146618;720;46016;-77
2022/09/19 01:54:35;;;;;;;;;0.75;0.75;;;;;21.83;49.05;100751.56;146622;570;46020;-78
2022/09/19 01:58:37;;;;;;;;;2.00;1.00;;;;;21.82;49.25;100751.59;146619;649;46016;-75
2022/09/19 02:02:15;;;;;;;;;0.50;0.50;;;;;21.84;49.74;100768.31;146624;666;46010;-76
2022/09/19 02:05:19;;;;;;;;;2.00;1.00;;;;;21.81;50.26;100768.31;146616;624;46916;-75
2022/09/19 02:08:45;;;;;;;;;0.67;0.67;;;;;21.79;50.21;100767.41;146621;599;46010;-74
2022/09/19 02:11:50;;;;;;;;;;;;;;;;;;;;;
2022/09/19 02:14:54;;;;;;;;;1.75;1.75;;;;;21.59;51.27;100773.44;146625;614;46012;-74
2022/09/19 02:18:04;;;;;;;;;1.00;1.00;;;;;21.50;51.12;100775.13;146620;654;46012;-70
2022/09/19 02:21:06;;;;;;;;;1.00;1.00;;;;;21.45;51.23;100775.97;146625;598;46012;-72
2022/09/19 02:24:10;;;;;;;;;1.00;1.00;;;;;21.42;51.40;100778.56;146619;590;46919;-73
2022/09/19 02:27:15;;;;;;;;;2.50;2.50;;;;;21.38;52.28;100773.28;146624;738;46010;-73
2022/09/19 02:30:16;;;;;;;;;1.00;1.00;;;;;21.35;51.45;100775.84;146618;606;46016;-71
2022/09/19 02:33:13;;;;;;;;;1.67;0.67;;;;;21.35;51.89;100781.12;146624;579;46010;-70
2022/09/19 02:36:34;;;;;;;;;2.00;1.00;;;;;21.33;51.29;100783.75;146619;573;46014;-70
2022/09/19 02:40:02;;;;;;;;;4.00;0.33;;;;;21.35;50.47;100786.41;146624;618;46020;-69
2022/09/19 02:43:36;;;;;;;;;1.00;1.00;;;;;21.33;50.94;100781.09;146617;598;46016;-68
2022/09/19 02:46:55;;;;;;;;;2.75;2.00;;;;;21.27;51.06;100774.91;146622;632;46021;-70
2022/09/19 02:50:15;;;;;;;;;1.00;0.00;;;;;21.29;50.59;100778.44;146620;577;46018;-69
2022/09/19 02:53:12;;;;;;;;;1.00;1.00;;;;;21.28;52.03;100788.12;146712;563;46022;-70
2022/09/19 02:56:27;;;;;;;;;0.67;0.67;;;;;21.24;51.86;100778.38;146620;665;46012;-69
2022/09/19 02:59:46;;;;;;;;;2.00;1.00;;;;;20.48;52.13;100665.22;146623;675;46021;-70
2022/09/19 03:06:23;;;;;;;;;1.00;0.00;;;;;21.12;52.35;100781.81;146622;574;46012;-70
2022/09/19 03:09:21;;;;;;;;;2.00;0.00;;;;;21.17;52.32;100792.41;146616;570;46016;-70
2022/09/19 03:12:40;;;;;;;;;1.33;0.33;;;;;21.15;51.84;100794.13;146620;683;46020;-70
2022/09/19 03:16:04;;;;;;;;;1.67;0.33;;;;;21.10;51.01;100791.47;146617;670;46017;-70
2022/09/19 03:19:00;;;;;;;;;2.75;1.75;;;;;21.07;53.14;100796.72;146623;668;46010;-70
2022/09/19 03:22:19;;;;;;;;;3.50;2.25;;;;;20.93;51.75;100783.41;146619;657;47012;-69
2022/09/19 03:25:17;;;;;;;;;0.33;0.33;;;;;20.91;53.02;100792.16;146622;596;46021;-70
2022/09/19 03:28:21;;;;;;;;;2.33;1.67;;;;;20.87;53.17;100790.34;146614;669;47012;-71
2022/09/19 03:31:38;;;;;;;;;0.00;0.00;;;;;20.86;51.65;100781.56;146621;583;47010;-72
2022/09/19 03:34:32;;;;;;;;;3.00;1.50;;;;;20.91;52.77;100797.44;146616;633;46016;-71
2022/09/19 03:37:37;;;;;;;;;1.50;1.50;;;;;20.89;51.99;100799.16;146623;607;46011;-71
2022/09/19 03:40:38;;;;;;;;;1.25;1.00;;;;;20.85;53.47;100807.91;146618;594;47012;-71
2022/09/19 03:43:42;;;;;;;;;2.50;0.25;;;;;20.73;52.90;100809.53;146619;570;46020;-72
2022/09/19 03:46:36;;;;;;;;;2.00;1.00;;;;;20.68;53.22;100805.94;146620;648;46012;-70
2022/09/19 03:49:32;;;;;;;;;1.50;1.50;;;;;20.66;53.04;100802.44;146622;589;46010;-71
2022/09/19 03:52:31;;;;;;;;;2.00;0.75;;;;;20.59;52.99;100802.34;146614;597;46016;-78
2022/09/19 03:55:32;;;;;;;;;1.25;1.00;;;;;20.52;53.67;100809.28;146617;571;46020;-77
2022/09/19 03:58:29;;;;;;;;;3.00;2.25;;;;;19.52;53.23;100636.87;146613;566;46012;-70
2022/09/19 04:01:31;;;;;;;;;2.50;2.00;;;;;20.42;53.31;100813.53;146615;569;47010;-71
2022/09/19 04:04:42;;;;;;;;;2.00;2.00;;;;;20.38;52.79;100811.72;146612;618;46016;-74
2022/09/19 04:07:54;;;;;;;;;2.00;2.00;;;;;20.37;52.64;100825.75;146616;564;46012;-72
2022/09/19 04:10:52;;;;;;;;;2.00;1.00;;;;;20.44;52.80;100830.25;146608;573;48012;-73
2022/09/19 04:13:55;;;;;;;;;1.75;1.75;;;;;20.50;52.96;100830.31;146616;682;46020;-73
2022/09/19 04:16:53;;;;;;;;;1.75;1.75;;;;;20.52;52.84;100833.87;146611;578;46016;-70
2022/09/19 04:19:50;;;;;;;;;3.00;1.50;;;;;20.55;53.07;100840.06;146616;569;46020;-71
2022/09/19 04:22:54;;;;;;;;;3.25;3.25;;;;;20.54;53.08;100841.81;146610;640;46917;-73
2022/09/19 04:25:54;;;;;;;;;1.50;1.50;;;;;20.50;53.07;100843.50;146616;571;46012;-73
2022/09/19 04:28:51;;;;;;;;;1.75;1.00;;;;;20.46;52.91;100852.19;146611;621;46013;-75
2022/09/19 04:31:47;;;;;;;;;2.33;1.33;;;;;20.43;53.62;100852.16;146618;563;46020;-75
2022/09/19 04:34:43;;;;;;;;;5.25;4.00;;;;;20.36;53.20;100847.69;146613;565;47016;-73
2022/09/19 04:37:43;;;;;;;;;4.25;2.25;;;;;20.39;53.43;100854.75;146618;564;46021;-72
2022/09/19 04:41:01;;;;;;;;;3.25;2.00;;;;;20.46;53.47;100857.47;146609;579;47014;-72
2022/09/19 04:44:01;;;;;;;;;1.67;1.67;;;;;20.50;52.78;100863.69;146616;655;46020;-73
2022/09/19 04:47:05;;;;;;;;;;;;;;;;;;;;;
2022/09/19 04:49:59;;;;;;;;;1.50;1.50;;;;;20.49;53.08;100856.63;146616;569;46020;-73
2022/09/19 04:53:03;;;;;;;;;4.50;2.50;;;;;20.73;52.95;100854.34;146610;630;46016;-77
2022/09/19 04:56:06;;;;;;;;;5.00;4.00;;;;;21.66;52.11;100869.34;146616;655;46010;-77
2022/09/19 04:59:03;;;;;;;;;4.25;2.00;;;;;22.64;49.55;100863.81;146610;625;47014;-79
2022/09/19 05:01:51;;;;;;;;;3.00;2.50;;;;;23.45;47.56;100871.97;146704;564;46022;-76
2022/09/19 05:04:55;;;;;;;;;2.75;1.00;;;;;24.22;45.89;100856.94;146621;618;46012;-74
2022/09/19 05:07:52;;;;;;;;;2.00;1.00;;;;;24.96;44.89;100860.19;146624;597;46020;-76
2022/09/19 05:10:48;;;;;;;;;0.33;0.33;;;;;25.58;43.72;100869.53;146621;579;45016;-74
2022/09/19 05:13:42;;;;;;;;;1.75;1.00;;;;;26.14;42.59;100863.75;146627;622;45020;-74
2022/09/19 05:16:45;;;;;;;;;1.33;0.33;;;;;26.48;41.93;100869.56;146623;611;45017;-74
2022/09/19 05:19:43;;;;;;;;;1.00;0.00;;;;;26.62;41.35;100864.97;146626;649;45020;-74
2022/09/19 05:22:44;;;;;;;;;4.00;1.00;;;;;26.60;41.06;100856.12;146622;571;46014;-72
2022/09/19 05:25:50;;;;;;;;;3.33;1.00;;;;;26.63;41.13;100874.69;146627;589;45051;-70
2022/09/19 05:28:45;;;;;;;;;1.00;1.00;;;;;26.61;41.49;100876.50;146623;630;45017;-73
2022/09/19 05:31:38;;;;;;;;;0.33;0.33;;;;;26.59;40.10;100872.97;146627;588;46010;-74
2022/09/19 05:34:33;;;;;;;;;1.67;1.67;;;;;26.49;39.01;100877.53;146622;597;46016;-74
2022/09/19 05:37:13;;;;;;;;;2.33;1.67;;;;;26.23;40.43;100874.25;146700;569;46023;-73
2022/09/19 05:40:06;;;;;;;;;6.00;3.00;;;;;26.08;40.91;100882.41;146620;588;46014;-78
2022/09/19 05:43:03;;;;;;;;;2.00;2.00;;;;;25.98;39.53;100876.28;146622;617;46010;-77
2022/09/19 05:46:04;;;;;;;;;3.33;2.00;;;;;25.86;42.63;100881.72;146615;612;46016;-90
2022/09/19 05:49:10;;;;;;;;;0.33;0.33;;;;;25.67;41.44;100881.88;146622;565;46010;-71
2022/09/19 05:53:52;;;;;;;;;5.00;2.67;;;;;25.45;41.45;100881.16;146617;643;46014;-72
2022/09/19 05:55:15;;;;;;;;;2.00;1.33;;;;;25.23;41.51;100880.38;146623;613;46010;-72
2022/09/19 05:58:18;;;;;;;;;2.00;2.00;;;;;25.19;41.80;100885.75;146617;604;46918;-74
2022/09/19 06:01:13;;;;;;;;;3.00;1.00;;;;;25.11;41.51;100891.06;146618;597;48012;-77
2022/09/19 06:04:07;;;;;;;;;3.00;1.00;;;;;25.02;42.36;100884.03;146616;570;46016;-80
2022/09/19 06:07:16;;;;;;;;;8.67;5.00;;;;;25.06;42.28;100883.12;146620;637;46021;-74
2022/09/19 06:10:12;;;;;;;;;2.67;1.33;;;;;25.00;41.65;100879.62;146614;626;48027;-70
2022/09/19 06:13:25;;;;;;;;;2.67;1.33;;;;;24.93;43.30;100885.88;146622;576;46013;-68
2022/09/19 06:16:29;;;;;;;;;1.67;1.67;;;;;24.92;43.37;100884.97;146618;593;46016;-69
2022/09/19 06:19:36;;;;;;;;;0.33;0.00;;;;;25.02;42.86;100884.03;146624;585;46010;-70
2022/09/19 06:22:30;;;;;;;;;2.25;1.25;;;;;25.20;41.72;100891.03;146618;700;46012;-69
2022/09/19 06:25:32;;;;;;;;;3.00;2.00;;;;;25.32;42.54;100885.63;146619;589;46020;-71
2022/09/19 06:28:28;;;;;;;;;2.00;2.00;;;;;25.44;42.10;100882.03;146618;596;47012;-71
2022/09/19 06:31:38;;;;;;;;;2.33;1.00;;;;;25.67;40.93;100884.53;146621;603;46021;-71
2022/09/19 06:34:36;;;;;;;;;0.67;0.00;;;;;25.97;40.60;100883.38;146619;569;46038;-70
2022/09/19 06:37:40;;;;;;;;;1.00;1.00;;;;;26.35;39.60;100882.09;146617;610;46021;-71
2022/09/19 06:40:46;;;;;;;;;4.67;3.33;;;;;26.68;38.77;100880.84;146618;569;46016;-71
2022/09/19 06:43:38;;;;;;;;;8.00;8.00;;;;;26.93;38.49;100884.06;146622;586;46011;-72
2022/09/19 06:46:41;;;;;;;;;5.33;3.67;;;;;27.16;38.49;100883.75;146617;652;47016;-71
2022/09/19 06:49:39;;;;;;;;;3.00;3.00;;;;;27.35;37.72;100883.50;146622;652;46021;-71
2022/09/19 06:52:32;;;;;;;;;0.00;0.00;;;;;27.39;37.62;100882.56;146617;617;46916;-76
2022/09/19 06:55:33;;;;;;;;;0.00;0.00;;;;;27.39;37.66;100896.75;146623;670;46010;-76
2022/09/19 06:58:26;;;;;;;;;0.00;0.00;;;;;27.37;37.48;100893.22;146616;574;46916;-77
2022/09/19 07:01:40;;;;;;;;;0.00;0.00;;;;;27.27;38.49;100898.72;146623;611;46010;-77
2022/09/19 07:04:34;;;;;;;;;0.00;0.00;;;;;27.10;38.14;100899.81;146617;611;46017;-75
2022/09/19 07:07:39;;;;;;;;;1.00;1.00;;;;;26.91;39.23;100896.50;146620;602;46010;-76
2022/09/19 07:10:36;;;;;;;;;1.00;0.00;;;;;26.82;40.27;100894.00;146619;699;46016;-76
2022/09/19 07:13:39;;;;;;;;;0.00;0.00;;;;;26.88;39.46;100901.00;146623;569;46010;-76
2022/09/19 07:16:37;;;;;;;;;0.33;0.33;;;;;27.02;39.73;100901.69;146617;577;46016;-77
2022/09/19 07:19:37;;;;;;;;;2.33;1.00;;;;;27.27;39.67;100904.03;146620;571;46020;-76
2022/09/19 07:22:37;;;;;;;;;1.00;1.00;;;;;27.51;38.30;100894.78;146617;638;46916;-75
2022/09/19 07:25:41;;;;;;;;;1.00;1.00;;;;;27.56;38.50;100896.47;146623;593;46010;-76
2022/09/19 07:28:34;;;;;;;;;0.00;0.00;;;;;27.43;39.37;100904.69;146614;570;46017;-76
2022/09/19 07:31:39;;;;;;;;;0.00;0.00;;;;;27.23;39.16;100902.31;146622;595;46030;-74
2022/09/19 07:34:32;;;;;;;;;1.00;0.00;;;;;27.09;40.03;100894.50;146618;579;46016;-75
2022/09/19 07:37:28;;;;;;;;;0.00;0.00;;;;;26.87;40.20;100904.56;146623;651;46021;-74
2022/09/19 07:40:21;;;;;;;;;0.00;0.00;;;;;26.63;40.03;100906.62;146614;572;46014;-74
2022/09/19 07:43:30;;;;;;;;;0.00;0.00;;;;;26.51;39.77;100916.50;146624;651;46020;-78
2022/09/19 07:46:29;;;;;;;;;0.00;0.00;;;;;26.36;40.91;100910.47;146620;639;46016;-73
2022/09/19 07:49:47;;;;;;;;;;;;;;;;;;;;;
2022/09/19 07:53:22;;;;;;;;;1.67;1.67;;;;;25.87;41.70;100912.72;146621;636;46012;-76
2022/09/19 07:56:27;;;;;;;;;1.00;1.00;;;;;25.58;41.61;100911.16;146622;571;46026;-77
2022/09/19 07:59:33;;;;;;;;;0.00;0.00;;;;;25.37;41.80;100912.16;146619;611;46012;-72
2022/09/19 08:02:39;;;;;;;;;3.33;2.67;;;;;25.12;42.68;100909.66;146624;598;46020;-71
2022/09/19 08:05:36;;;;;;;;;0.00;0.00;;;;;25.00;42.80;100903.50;146620;646;46013;-70
2022/09/19 08:08:24;;;;;;;;;0.67;0.33;;;;;25.05;43.29;100902.59;146700;569;46012;-71
2022/09/19 08:11:25;;;;;;;;;0.00;0.00;;;;;25.21;43.02;100905.19;146613;594;46013;-72
2022/09/19 08:14:39;;;;;;;;;1.33;0.00;;;;;25.27;43.01;100900.72;146618;636;46020;-73
2022/09/19 08:17:31;;;;;;;;;0.00;0.00;;;;;25.50;42.82;100910.31;146611;572;46017;-73
2022/09/19 08:20:25;;;;;;;;;0.67;0.67;;;;;25.76;41.89;100903.03;146617;608;46021;-75
2022/09/19 08:23:24;;;;;;;;;0.00;0.00;;;;;26.01;41.30;100914.34;146610;613;47012;-74
2022/09/19 08:26:46;;;;;;;;;0.00;0.00;;;;;26.34;40.45;100908.72;146618;569;46020;-74
2022/09/19 08:29:39;;;;;;;;;0.00;0.00;;;;;26.56;39.12;100899.62;146609;565;47014;-71
2022/09/19 08:32:41;;;;;;;;;0.33;0.00;;;;;26.75;40.14;100902.06;146617;651;47013;-73
2022/09/19 08:35:39;;;;;;;;;0.00;0.00;;;;;27.00;39.19;100905.28;146614;593;46016;-75
2022/09/19 08:38:35;;;;;;;;;0.00;0.00;;;;;27.14;38.88;100909.53;146617;584;46020;-72
2022/09/19 08:42:10;;;;;;;;;0.67;0.67;;;;;27.23;39.08;100903.22;146613;655;46013;-72
2022/09/19 08:45:53;;;;;;;;;1.00;0.00;;;;;27.38;39.40;100903.00;146617;587;46010;-73
2022/09/19 08:49:07;;;;;;;;;1.00;1.00;;;;;27.51;38.73;100894.78;146613;604;46017;-72
2022/09/19 08:52:42;;;;;;;;;0.00;0.00;;;;;26.72;38.58;100752.22;146617;660;47010;-73
2022/09/19 08:55:59;;;;;;;;;0.00;0.00;;;;;27.56;38.27;100891.16;146611;609;46017;-74
2022/09/19 08:59:07;;;;;;;;;0.00;0.00;;;;;27.70;37.83;100887.41;146616;602;46012;-73
2022/09/19 09:02:24;;;;;;;;;1.33;0.00;;;;;27.81;37.43;100888.09;146611;589;46012;-72
2022/09/19 09:05:27;;;;;;;;;0.00;0.00;;;;;27.87;36.97;100885.34;146617;684;46010;-73
2022/09/19 09:09:00;;;;;;;;;0.00;0.00;;;;;27.87;38.13;100877.34;146621;592;46012;-74
2022/09/19 09:12:36;;;;;;;;;0.00;0.00;;;;;27.85;38.35;100876.47;146624;569;46020;-74
2022/09/19 09:16:04;;;;;;;;;1.00;0.00;;;;;27.89;37.25;100869.34;146618;577;46016;-72
2022/09/19 09:19:33;;;;;;;;;0.00;0.00;;;;;27.87;37.48;100867.56;146623;564;46021;-74
2022/09/19 09:22:52;;;;;;;;;0.67;0.67;;;;;27.85;37.35;100868.47;146620;569;46919;-74
2022/09/19 09:25:53;;;;;;;;;0.00;0.00;;;;;27.95;37.27;100854.09;146625;605;46020;-74
2022/09/19 09:29:25;;;;;;;;;0.00;0.00;;;;;28.05;37.52;100853.03;146618;611;46016;-72
2022/09/19 09:32:39;;;;;;;;;0.67;0.67;;;;;28.10;36.52;100844.94;146714;569;46012;-75
2022/09/19 09:35:52;;;;;;;;;1.33;0.00;;;;;28.09;36.67;100843.16;146621;636;46037;-73
2022/09/19 09:39:05;;;;;;;;;1.33;1.00;;;;;28.06;36.49;100835.22;146628;589;47010;-74
2022/09/19 09:42:11;;;;;;;;;1.00;1.00;;;;;28.13;37.54;100836.00;146625;643;46017;-74
2022/09/19 09:45:40;;;;;;;;;0.33;0.00;;;;;28.23;37.86;100826.94;146630;584;46020;-75
2022/09/19 09:48:57;;;;;;;;;1.00;0.00;;;;;28.31;36.83;100822.28;146624;634;46013;-72
2022/09/19 09:52:44;;;;;;;;;0.33;0.33;;;;;28.29;36.54;100806.34;146626;594;48010;-72
2022/09/19 09:56:22;;;;;;;;;1.00;1.00;;;;;27.56;37.56;100687.84;146622;583;46017;-73
2022/09/19 10:04:06;;;;;;;;;2.00;1.00;;;;;27.15;37.04;100625.62;146623;588;47015;-75
2022/09/19 10:07:45;;;;;;;;;0.00;0.00;;;;;28.26;37.28;100817.06;146628;591;45020;-75
2022/09/19 10:11:31;;;;;;;;;1.33;0.00;;;;;28.38;36.84;100815.94;146624;681;46017;-76
2022/09/19 10:14:33;;;;;;;;;2.00;1.00;;;;;28.48;36.24;100822.00;146632;572;46010;-74
2022/09/19 10:17:33;;;;;;;;;0.00;0.00;;;;;28.54;35.29;100820.06;146626;591;46013;-74
2022/09/19 10:20:35;;;;;;;;;1.00;0.33;;;;;28.55;35.65;100813.81;146630;650;46010;-73
2022/09/19 10:23:45;;;;;;;;;1.00;0.00;;;;;28.60;35.39;100811.06;146624;588;46016;-74
2022/09/19 10:26:40;;;;;;;;;1.00;1.00;;;;;28.69;35.77;100812.63;146628;564;46021;-74
2022/09/19 10:29:53;;;;;;;;;0.00;0.00;;;;;28.71;36.32;100798.34;146622;676;47012;-73
2022/09/19 10:32:45;;;;;;;;;0.00;0.00;;;;;28.85;35.17;100808.72;146645;566;46010;-73
2022/09/19 10:35:45;;;;;;;;;0.33;0.33;;;;;28.94;35.06;100805.84;146642;569;45016;-73
2022/09/19 10:39:12;;;;;;;;;0.00;0.00;;;;;29.05;34.78;100802.06;146645;578;46010;-75
2022/09/19 10:42:41;;;;;;;;;0.00;0.00;;;;;29.06;35.92;100790.47;146643;588;45919;-74
2022/09/19 10:45:40;;;;;;;;;0.00;0.00;;;;;29.12;35.04;100788.50;146644;589;46010;-73
2022/09/19 10:48:53;;;;;;;;;0.00;0.00;;;;;29.12;35.98;100779.63;146641;597;45017;-72
2022/09/19 10:52:06;;;;;;;;;;;;;;;;;;;;;
2022/09/19 10:55:26;;;;;;;;;2.00;1.00;;;;;29.20;34.93;100766.97;146639;580;45017;-73
2022/09/19 10:58:31;;;;;;;;;1.00;1.00;;;;;29.26;35.35;100765.97;146642;647;46010;-74
2022/09/19 11:01:33;;;;;;;;;1.67;0.00;;;;;29.30;34.61;100757.81;146638;591;45016;-73
2022/09/19 11:04:29;;;;;;;;;0.67;0.00;;;;;29.30;34.63;100749.81;146647;579;46010;-70
2022/09/19 11:07:36;;;;;;;;;1.00;1.00;;;;;29.21;34.08;100747.38;146639;596;45016;-71
2022/09/19 11:11:05;;;;;;;;;0.00;0.00;;;;;29.11;35.28;100744.06;146645;564;45011;-70
2022/09/19 11:14:55;;;;;;;;;1.00;1.00;;;;;28.99;35.55;100742.53;146643;620;45930;-72
2022/09/19 11:18:31;;;;;;;;;3.67;2.67;;;;;28.87;33.82;100752.63;146643;592;45021;-71
2022/09/19 11:22:01;;;;;;;;;2.33;1.67;;;;;28.85;35.16;100752.69;146642;575;45012;-73
2022/09/19 11:25:23;;;;;;;;;0.33;0.00;;;;;28.85;34.74;100747.34;146643;570;45012;-79
2022/09/19 11:29:12;;;;;;;;;0.67;0.67;;;;;28.13;34.97;100610.31;146637;577;45016;-72
2022/09/19 11:32:35;;;;;;;;;2.00;0.67;;;;;28.95;36.04;100740.84;146625;584;45021;-71
2022/09/19 11:35:57;;;;;;;;;1.67;0.00;;;;;28.98;35.02;100738.13;146619;590;46915;-72
2022/09/19 11:39:13;;;;;;;;;1.00;0.00;;;;;28.97;35.18;100730.12;146623;563;46020;-72
2022/09/19 11:42:47;;;;;;;;;1.33;0.67;;;;;28.97;34.84;100739.03;146618;628;46016;-72
2022/09/19 11:46:22;;;;;;;;;0.00;0.00;;;;;28.87;35.35;100726.81;146626;583;46012;-73
2022/09/19 11:50:04;;;;;;;;;1.00;1.00;;;;;28.59;36.00;100717.72;146616;601;46016;-71
2022/09/19 11:53:39;;;;;;;;;2.67;1.00;;;;;28.52;34.91;100732.97;146622;597;46020;-73
2022/09/19 11:57:24;;;;;;;;;;;;;;;;;;;;;
2022/09/19 12:00:33;;;;;;;;;2.67;1.00;;;;;28.54;34.09;100718.72;146623;624;46012;-72
2022/09/19 12:04:25;;;;;;;;;1.33;1.00;;;;;27.78;34.16;100576.44;146621;654;46012;-72
2022/09/19 12:08:13;;;;;;;;;2.00;1.00;;;;;28.42;35.51;100697.66;146626;589;46010;-73
2022/09/19 12:11:38;;;;;;;;;1.00;1.00;;;;;28.44;35.39;100700.25;146618;619;46016;-78
2022/09/19 12:15:00;;;;;;;;;2.00;1.00;;;;;28.46;35.41;100696.66;146620;635;47012;-74
2022/09/19 12:18:22;;;;;;;;;1.00;1.00;;;;;28.48;34.79;100692.19;146622;577;46013;-78
2022/09/19 12:21:58;;;;;;;;;0.00;0.00;;;;;28.43;36.11;100687.84;146616;600;47012;-71
2022/09/19 12:25:08;;;;;;;;;0.00;0.00;;;;;28.43;35.59;100685.19;146618;571;46918;-75
2022/09/19 12:28:24;;;;;;;;;0.00;0.00;;;;;28.47;35.72;100693.06;146623;648;46010;-74
2022/09/19 12:31:26;;;;;;;;;1.00;1.00;;;;;28.50;35.75;100687.66;146617;624;46016;-73
2022/09/19 12:35:18;;;;;;;;;0.33;0.00;;;;;28.50;35.85;100687.66;146620;570;46020;-75
2022/09/19 12:38:48;;;;;;;;;0.00;0.00;;;;;28.54;36.19;100686.69;146620;608;46016;-74
2022/09/19 12:42:44;;;;;;;;;0.33;0.33;;;;;27.80;36.08;100545.31;146624;611;46010;-74
2022/09/19 12:46:11;;;;;;;;;1.00;1.00;;;;;27.86;34.51;100551.38;146621;570;46915;-74
2022/09/19 12:49:29;;;;;;;;;2.00;1.00;;;;;28.69;35.15;100679.22;146620;619;46020;-74
2022/09/19 12:52:44;;;;;;;;;0.50;0.50;;;;;28.71;34.48;100680.06;146618;585;46915;-75
2022/09/19 12:56:19;;;;;;;;;0.00;0.00;;;;;28.63;35.54;100679.38;146620;668;46021;-72
2022/09/19 12:59:39;;;;;;;;;1.00;1.00;;;;;28.53;35.60;100674.25;146619;573;46016;-75
2022/09/19 13:03:16;;;;;;;;;2.00;1.00;;;;;28.42;36.00;100670.97;146624;566;46020;-77
2022/09/19 13:06:32;;;;;;;;;0.00;0.00;;;;;28.35;36.19;100663.09;146618;566;46016;-73
2022/09/19 13:09:50;;;;;;;;;2.33;1.33;;;;;28.36;36.11;100660.41;146624;573;46010;-74
2022/09/19 13:13:42;;;;;;;;;1.00;1.00;;;;;27.82;36.08;100570.13;146616;611;46016;-73
2022/09/19 13:23:35;;;;;;;;;0.00;0.00;;;;;28.34;35.37;100656.91;146623;573;46020;-74
2022/09/19 13:26:46;;;;;;;;;1.67;1.00;;;;;28.42;36.09;100648.78;146618;605;46016;-74
2022/09/19 13:30:03;;;;;;;;;1.00;1.00;;;;;28.43;35.00;100640.72;146624;589;46022;-73
2022/09/19 13:33:09;;;;;;;;;1.67;1.67;;;;;28.29;36.22;100637.47;146640;588;46014;-76
2022/09/19 13:36:15;;;;;;;;;1.00;1.00;;;;;28.18;35.69;100629.72;146646;634;45010;-73
2022/09/19 13:39:19;;;;;;;;;;;;;;;;;;;;;
2022/09/19 13:42:24;;;;;;;;;0.67;0.67;;;;;28.06;36.21;100630.00;146642;599;46010;-71
2022/09/19 13:45:59;;;;;;;;;1.00;0.33;;;;;28.08;37.11;100631.72;146642;664;45016;-72
2022/09/19 13:49:03;;;;;;;;;2.67;0.33;;;;;28.10;35.96;100629.03;146641;590;45022;-73
2022/09/19 13:52:08;;;;;;;;;1.00;1.00;;;;;27.91;36.28;100617.00;146641;604;45016;-71
2022/09/19 13:55:35;;;;;;;;;1.00;1.00;;;;;27.53;36.92;100614.22;146644;579;46010;-70
2022/09/19 13:58:48;;;;;;;;;2.67;2.00;;;;;27.32;37.38;100623.53;146643;656;45016;-70
2022/09/19 14:02:08;;;;;;;;;0.67;0.67;;;;;27.14;37.83;100619.41;146640;609;45023;-71
2022/09/19 14:05:22;;;;;;;;;1.00;1.00;;;;;27.08;38.02;100622.16;146644;598;45012;-70
2022/09/19 14:08:37;;;;;;;;;1.00;1.00;;;;;27.14;37.28;100619.41;146645;577;46010;-72
2022/09/19 14:11:38;;;;;;;;;0.00;0.00;;;;;27.29;37.13;100620.00;146639;628;45024;-70
2022/09/19 14:15:02;;;;;;;;;1.00;1.00;;;;;26.66;37.23;100488.13;146642;671;45021;-71
2022/09/19 14:18:34;;;;;;;;;1.00;1.00;;;;;27.51;37.63;100621.38;146643;595;45012;-70
2022/09/19 14:22:03;;;;;;;;;2.00;1.00;;;;;27.59;37.46;100622.06;146644;645;46010;-71
2022/09/19 14:25:05;;;;;;;;;1.00;1.00;;;;;27.59;37.54;100610.53;146639;566;45014;-72
2022/09/19 14:28:41;;;;;;;;;0.50;0.50;;;;;27.60;37.65;100615.84;146637;574;47020;-72
2022/09/19 14:32:25;;;;;;;;;2.67;2.00;;;;;27.61;37.90;100622.94;146631;610;46013;-71
2022/09/19 14:35:55;;;;;;;;;1.00;1.00;;;;;27.57;37.49;100612.34;146632;613;46010;-71
2022/09/19 14:39:28;;;;;;;;;1.00;1.00;;;;;27.50;38.07;100611.59;146625;604;46017;-71
2022/09/19 14:42:56;;;;;;;;;2.00;1.67;;;;;27.47;37.75;100618.78;146629;569;46010;-69
2022/09/19 14:46:51;;;;;;;;;1.00;1.00;;;;;27.30;38.35;100601.38;146625;598;46017;-71
2022/09/19 14:50:51;;;;;;;;;;;;;;;;;;;;;
2022/09/19 14:54:28;;;;;;;;;3.00;1.00;;;;;27.27;38.51;100608.53;146626;644;46012;-72
2022/09/19 14:57:26;;;;;;;;;2.00;2.00;;;;;27.08;38.86;100600.88;146632;565;46012;-72
2022/09/19 15:00:47;;;;;;;;;2.33;1.67;;;;;26.81;39.89;100599.56;146622;597;46017;-72
2022/09/19 15:04:27;;;;;;;;;;;;;;;;;;;;;
2022/09/19 15:07:47;;;;;;;;;3.00;2.00;;;;;26.69;39.80;100597.13;146628;638;46013;-74
2022/09/19 15:10:52;;;;;;;;;1.00;1.00;;;;;26.61;40.87;100602.59;146624;612;46020;-71
2022/09/19 15:13:59;;;;;;;;;2.33;2.00;;;;;26.52;40.75;100604.53;146622;618;46016;-75
2022/09/19 15:17:22;;;;;;;;;2.67;2.67;;;;;26.36;41.59;100604.72;146623;630;46020;-73
2022/09/19 15:20:32;;;;;;;;;3.00;3.00;;;;;26.09;42.71;100611.34;146621;571;46012;-76
2022/09/19 15:23:42;;;;;;;;;3.67;3.33;;;;;25.87;43.01;100604.56;146619;579;46020;-68
2022/09/19 15:26:47;;;;;;;;;2.00;2.00;;;;;25.74;42.10;100610.00;146622;634;46012;-69